VECC/CCU METAR and TAF weather

Enter ICAO airport designator
Station Type Date Time Source
VECC METAR 2022/10/01 09:00 UTC NOAA

VECC 010900Z 08005KT 3500 HZ SCT018 FEW030CB BKN100 33/25 Q1000 NOSIG


Station Type Date Time Source
VECC Decoded METAR 2022/10/01 09:00 UTC NOAA

Calcutta / Dum Dum, India (VECC) 22-39N 088-27E 6M
Oct 01, 2022 - 05:00 AM EDT / 2022.10.01 0900 UTC
Wind: from the E (080 degrees) at 6 MPH (5 KT):0
Visibility: 2 mile(s):0
Sky conditions: mostly cloudy
Weather: haze; Cumulonimbus clouds observed
Temperature: 91 F (33 C)
Heat index: 103.5 F (39.7 C):1
Dew Point: 77 F (25 C)
Relative Humidity: 62%
Pressure (altimeter): 29.53 in. Hg (1000 hPa)
ob: VECC 010900Z 08005KT 3500 HZ SCT018 FEW030CB BKN100 33/25 Q1000 NOSIG
cycle: 9

Station Type Date Time Source
VECC TAF 2022/10/01 06:51 UTC NOAA

VECC 010500Z 0106/0212 03006KT 3500 -RA HZ SCT018 BKN100
TEMPO 0108/0112 1500 TSRA SCT015 FEW025CB OVC090
BECMG 0116/0118 18005KT 2800 -RA HZ
TEMPO 0122/0202 1400 TSRA SCT015 FEW025CB OVC090
BECMG 0203/0205 06006KT 3500 -RA HZ
TEMPO 0206/0210 1500 TSRA SCT015 FEW025CB OVC090

Example: see airport list